< < Back
Terminal Aerodrome Forecast


Current Version              Previous Versions:   1  2  3  4  5  6  7  8  9  

Terminal Aerodrome Forecast

377
FTUS42 KMLB 020253 AAA
TAFMCO
TAF AMD
KMCO 020253Z 0203/0224 30004KT P6SM BKN250
     FM021400 10005KT P6SM SCT030 SCT250
     FM021900 12007KT P6SM SCT045=



Latest METAR

465
SAUS70 KWBC 020600 RRA
MTRMCO
METAR KMCO 020553Z 28004KT 10SM SCT250 20/17 A3016 RMK AO2 SLP211
T02000172 10250 20200 51005


USA.gov is the U.S. government's official web portal to all federal, state and local government web resources and services.